sensor_id;sensor_type;location;lat;lon;timestamp;P1;durP1;ratioP1;P2;durP2;ratioP2
59504;SDS011;45321;53.200;5.814;2023-04-24T00:01:43;5.10;;;4.60;;
59504;SDS011;45321;53.200;5.814;2023-04-24T00:04:09;5.63;;;4.47;;
59504;SDS011;45321;53.200;5.814;2023-04-24T00:06:36;4.80;;;4.28;;
59504;SDS011;45321;53.200;5.814;2023-04-24T00:09:05;5.03;;;4.50;;
59504;SDS011;45321;53.200;5.814;2023-04-24T00:11:31;5.70;;;5.20;;
59504;SDS011;45321;53.200;5.814;2023-04-24T00:13:56;5.25;;;4.85;;
59504;SDS011;45321;53.200;5.814;2023-04-24T00:16:22;5.30;;;4.80;;
59504;SDS011;45321;53.200;5.814;2023-04-24T00:18:48;5.97;;;5.47;;
59504;SDS011;45321;53.200;5.814;2023-04-24T00:21:14;7.95;;;5.72;;
59504;SDS011;45321;53.200;5.814;2023-04-24T00:23:42;7.60;;;5.47;;
59504;SDS011;45321;53.200;5.814;2023-04-24T00:26:09;6.22;;;5.38;;
59504;SDS011;45321;53.200;5.814;2023-04-24T00:28:35;6.93;;;6.03;;
59504;SDS011;45321;53.200;5.814;2023-04-24T00:31:01;6.70;;;6.03;;
59504;SDS011;45321;53.200;5.814;2023-04-24T00:33:27;7.63;;;6.28;;
59504;SDS011;45321;53.200;5.814;2023-04-24T00:35:52;6.88;;;6.22;;
59504;SDS011;45321;53.200;5.814;2023-04-24T00:38:18;7.82;;;5.97;;
59504;SDS011;45321;53.200;5.814;2023-04-24T00:40:44;10.55;;;6.43;;
59504;SDS011;45321;53.200;5.814;2023-04-24T00:43:10;7.78;;;6.35;;
59504;SDS011;45321;53.200;5.814;2023-04-24T00:45:37;7.45;;;5.88;;
59504;SDS011;45321;53.200;5.814;2023-04-24T00:48:02;7.43;;;5.95;;
59504;SDS011;45321;53.200;5.814;2023-04-24T00:50:29;7.25;;;6.55;;
59504;SDS011;45321;53.200;5.814;2023-04-24T00:52:55;7.80;;;6.95;;
59504;SDS011;45321;53.200;5.814;2023-04-24T00:55:22;7.35;;;6.65;;
59504;SDS011;45321;53.200;5.814;2023-04-24T00:57:49;7.80;;;7.00;;
59504;SDS011;45321;53.200;5.814;2023-04-24T01:00:16;8.10;;;7.38;;
59504;SDS011;45321;53.200;5.814;2023-04-24T01:02:45;9.27;;;7.18;;
59504;SDS011;45321;53.200;5.814;2023-04-24T01:05:12;8.23;;;7.47;;
59504;SDS011;45321;53.200;5.814;2023-04-24T01:07:43;8.23;;;7.43;;
59504;SDS011;45321;53.200;5.814;2023-04-24T01:10:11;8.05;;;7.25;;
59504;SDS011;45321;53.200;5.814;2023-04-24T01:12:37;9.05;;;8.15;;
59504;SDS011;45321;53.200;5.814;2023-04-24T01:15:03;8.13;;;7.43;;
59504;SDS011;45321;53.200;5.814;2023-04-24T01:17:31;8.43;;;7.50;;
59504;SDS011;45321;53.200;5.814;2023-04-24T01:19:58;8.20;;;7.50;;
59504;SDS011;45321;53.200;5.814;2023-04-24T01:22:25;8.55;;;7.65;;
59504;SDS011;45321;53.200;5.814;2023-04-24T01:24:52;8.90;;;8.00;;
59504;SDS011;45321;53.200;5.814;2023-04-24T01:27:18;8.52;;;7.72;;
59504;SDS011;45321;53.200;5.814;2023-04-24T01:29:45;8.60;;;7.72;;
59504;SDS011;45321;53.200;5.814;2023-04-24T01:32:12;9.00;;;8.10;;
59504;SDS011;45321;53.200;5.814;2023-04-24T01:34:38;7.97;;;7.18;;
59504;SDS011;45321;53.200;5.814;2023-04-24T01:37:04;8.32;;;7.57;;
59504;SDS011;45321;53.200;5.814;2023-04-24T01:39:31;8.45;;;7.68;;
59504;SDS011;45321;53.200;5.814;2023-04-24T01:41:58;8.45;;;7.75;;
59504;SDS011;45321;53.200;5.814;2023-04-24T01:44:25;9.20;;;8.30;;
59504;SDS011;45321;53.200;5.814;2023-04-24T01:46:51;9.40;;;8.50;;
59504;SDS011;45321;53.200;5.814;2023-04-24T01:49:19;9.07;;;7.80;;
59504;SDS011;45321;53.200;5.814;2023-04-24T01:51:45;8.43;;;7.63;;
59504;SDS011;45321;53.200;5.814;2023-04-24T01:54:11;8.55;;;7.85;;
59504;SDS011;45321;53.200;5.814;2023-04-24T01:56:36;8.98;;;8.18;;
59504;SDS011;45321;53.200;5.814;2023-04-24T01:59:07;8.80;;;7.97;;
59504;SDS011;45321;53.200;5.814;2023-04-24T02:01:35;7.90;;;7.22;;
59504;SDS011;45321;53.200;5.814;2023-04-24T02:04:02;9.13;;;8.20;;
59504;SDS011;45321;53.200;5.814;2023-04-24T02:06:29;8.20;;;7.45;;
59504;SDS011;45321;53.200;5.814;2023-04-24T02:08:56;7.88;;;7.13;;
59504;SDS011;45321;53.200;5.814;2023-04-24T02:11:23;9.15;;;8.32;;
59504;SDS011;45321;53.200;5.814;2023-04-24T02:13:48;8.05;;;7.25;;
59504;SDS011;45321;53.200;5.814;2023-04-24T02:16:15;7.32;;;6.68;;
59504;SDS011;45321;53.200;5.814;2023-04-24T02:18:41;7.38;;;6.68;;
59504;SDS011;45321;53.200;5.814;2023-04-24T02:21:07;8.18;;;7.38;;
59504;SDS011;45321;53.200;5.814;2023-04-24T02:23:32;8.50;;;7.68;;
59504;SDS011;45321;53.200;5.814;2023-04-24T02:25:58;8.07;;;7.47;;
59504;SDS011;45321;53.200;5.814;2023-04-24T02:28:24;9.00;;;8.07;;
59504;SDS011;45321;53.200;5.814;2023-04-24T02:30:50;9.00;;;8.05;;
59504;SDS011;45321;53.200;5.814;2023-04-24T02:33:16;9.40;;;8.02;;
59504;SDS011;45321;53.200;5.814;2023-04-24T02:35:41;8.38;;;6.95;;
59504;SDS011;45321;53.200;5.814;2023-04-24T02:38:07;5.85;;;5.40;;
59504;SDS011;45321;53.200;5.814;2023-04-24T02:40:33;4.28;;;3.88;;
59504;SDS011;45321;53.200;5.814;2023-04-24T02:42:59;4.45;;;4.05;;
59504;SDS011;45321;53.200;5.814;2023-04-24T02:45:25;3.90;;;3.50;;
59504;SDS011;45321;53.200;5.814;2023-04-24T02:47:51;3.78;;;3.17;;
59504;SDS011;45321;53.200;5.814;2023-04-24T02:50:16;4.15;;;3.72;;
59504;SDS011;45321;53.200;5.814;2023-04-24T02:52:42;4.82;;;3.10;;
59504;SDS011;45321;53.200;5.814;2023-04-24T02:55:08;4.35;;;3.60;;
59504;SDS011;45321;53.200;5.814;2023-04-24T02:57:34;3.75;;;3.45;;
59504;SDS011;45321;53.200;5.814;2023-04-24T03:00:00;4.50;;;3.72;;
59504;SDS011;45321;53.200;5.814;2023-04-24T03:02:26;3.83;;;3.30;;
59504;SDS011;45321;53.200;5.814;2023-04-24T03:04:51;4.05;;;2.90;;
59504;SDS011;45321;53.200;5.814;2023-04-24T03:07:17;2.92;;;2.63;;
59504;SDS011;45321;53.200;5.814;2023-04-24T03:09:45;3.83;;;2.45;;
59504;SDS011;45321;53.200;5.814;2023-04-24T03:12:12;1.77;;;1.40;;
59504;SDS011;45321;53.200;5.814;2023-04-24T03:14:38;1.85;;;1.73;;
59504;SDS011;45321;53.200;5.814;2023-04-24T03:17:04;2.17;;;1.35;;
59504;SDS011;45321;53.200;5.814;2023-04-24T03:19:30;1.33;;;1.20;;
59504;SDS011;45321;53.200;5.814;2023-04-24T03:21:55;2.88;;;1.00;;
59504;SDS011;45321;53.200;5.814;2023-04-24T03:24:21;1.77;;;1.25;;
59504;SDS011;45321;53.200;5.814;2023-04-24T03:26:47;3.58;;;1.60;;
59504;SDS011;45321;53.200;5.814;2023-04-24T03:29:13;4.00;;;2.00;;
59504;SDS011;45321;53.200;5.814;2023-04-24T03:31:39;4.45;;;2.35;;
59504;SDS011;45321;53.200;5.814;2023-04-24T03:34:04;3.80;;;2.80;;
59504;SDS011;45321;53.200;5.814;2023-04-24T03:36:30;3.42;;;3.08;;
59504;SDS011;45321;53.200;5.814;2023-04-24T03:38:56;3.38;;;3.08;;
59504;SDS011;45321;53.200;5.814;2023-04-24T03:41:22;5.05;;;3.00;;
59504;SDS011;45321;53.200;5.814;2023-04-24T03:43:48;4.47;;;3.47;;
59504;SDS011;45321;53.200;5.814;2023-04-24T03:46:13;4.55;;;3.70;;
59504;SDS011;45321;53.200;5.814;2023-04-24T03:48:40;4.15;;;3.75;;
59504;SDS011;45321;53.200;5.814;2023-04-24T03:51:06;4.10;;;3.70;;
59504;SDS011;45321;53.200;5.814;2023-04-24T03:53:31;5.65;;;3.38;;
59504;SDS011;45321;53.200;5.814;2023-04-24T03:55:57;4.28;;;3.47;;
59504;SDS011;45321;53.200;5.814;2023-04-24T03:58:23;4.20;;;3.40;;
59504;SDS011;45321;53.200;5.814;2023-04-24T04:00:49;3.90;;;3.38;;
59504;SDS011;45321;53.200;5.814;2023-04-24T04:03:15;4.53;;;3.20;;
59504;SDS011;45321;53.200;5.814;2023-04-24T04:05:41;3.88;;;3.03;;
59504;SDS011;45321;53.200;5.814;2023-04-24T04:08:06;4.50;;;2.90;;
59504;SDS011;45321;53.200;5.814;2023-04-24T04:10:32;2.97;;;2.67;;
59504;SDS011;45321;53.200;5.814;2023-04-24T04:12:58;4.63;;;2.67;;
59504;SDS011;45321;53.200;5.814;2023-04-24T04:15:24;4.13;;;3.50;;
59504;SDS011;45321;53.200;5.814;2023-04-24T04:17:49;5.25;;;3.85;;
59504;SDS011;45321;53.200;5.814;2023-04-24T04:20:15;5.90;;;4.30;;
59504;SDS011;45321;53.200;5.814;2023-04-24T04:22:41;5.90;;;5.00;;
59504;SDS011;45321;53.200;5.814;2023-04-24T04:25:07;6.55;;;4.93;;
59504;SDS011;45321;53.200;5.814;2023-04-24T04:27:33;6.68;;;5.45;;
59504;SDS011;45321;53.200;5.814;2023-04-24T04:29:59;7.93;;;5.47;;
59504;SDS011;45321;53.200;5.814;2023-04-24T04:32:33;4.93;;;4.28;;
59504;SDS011;45321;53.200;5.814;2023-04-24T04:35:02;6.38;;;3.40;;
59504;SDS011;45321;53.200;5.814;2023-04-24T04:37:32;4.00;;;2.70;;
59504;SDS011;45321;53.200;5.814;2023-04-24T04:39:58;3.33;;;2.35;;
59504;SDS011;45321;53.200;5.814;2023-04-24T04:42:25;2.50;;;2.30;;
59504;SDS011;45321;53.200;5.814;2023-04-24T04:44:52;3.42;;;2.03;;
59504;SDS011;45321;53.200;5.814;2023-04-24T04:47:18;3.85;;;3.00;;
59504;SDS011;45321;53.200;5.814;2023-04-24T04:49:48;5.63;;;3.92;;
59504;SDS011;45321;53.200;5.814;2023-04-24T04:52:14;9.25;;;5.70;;
59504;SDS011;45321;53.200;5.814;2023-04-24T04:54:41;9.40;;;5.95;;
59504;SDS011;45321;53.200;5.814;2023-04-24T04:57:07;7.10;;;6.10;;
59504;SDS011;45321;53.200;5.814;2023-04-24T04:59:33;10.27;;;6.38;;
59504;SDS011;45321;53.200;5.814;2023-04-24T05:01:58;14.63;;;8.00;;
59504;SDS011;45321;53.200;5.814;2023-04-24T05:04:24;10.32;;;7.63;;
59504;SDS011;45321;53.200;5.814;2023-04-24T05:06:51;10.40;;;7.43;;
59504;SDS011;45321;53.200;5.814;2023-04-24T05:09:17;11.45;;;7.20;;
59504;SDS011;45321;53.200;5.814;2023-04-24T05:11:43;10.98;;;7.90;;
59504;SDS011;45321;53.200;5.814;2023-04-24T05:14:09;8.60;;;5.85;;
59504;SDS011;45321;53.200;5.814;2023-04-24T05:16:35;8.40;;;6.88;;
59504;SDS011;45321;53.200;5.814;2023-04-24T05:19:02;6.82;;;4.90;;
59504;SDS011;45321;53.200;5.814;2023-04-24T05:21:28;6.18;;;4.95;;
59504;SDS011;45321;53.200;5.814;2023-04-24T05:23:54;6.38;;;4.00;;
59504;SDS011;45321;53.200;5.814;2023-04-24T05:26:20;4.97;;;3.08;;
59504;SDS011;45321;53.200;5.814;2023-04-24T05:28:48;3.67;;;3.25;;
59504;SDS011;45321;53.200;5.814;2023-04-24T05:31:15;3.88;;;2.58;;
59504;SDS011;45321;53.200;5.814;2023-04-24T05:33:42;6.40;;;3.53;;
59504;SDS011;45321;53.200;5.814;2023-04-24T05:36:08;3.38;;;3.03;;
59504;SDS011;45321;53.200;5.814;2023-04-24T05:38:34;6.97;;;3.50;;
59504;SDS011;45321;53.200;5.814;2023-04-24T05:40:59;3.95;;;3.08;;
59504;SDS011;45321;53.200;5.814;2023-04-24T05:43:25;4.60;;;3.45;;
59504;SDS011;45321;53.200;5.814;2023-04-24T05:45:51;6.90;;;4.40;;
59504;SDS011;45321;53.200;5.814;2023-04-24T05:48:18;4.63;;;3.20;;
59504;SDS011;45321;53.200;5.814;2023-04-24T05:50:44;3.97;;;3.03;;
59504;SDS011;45321;53.200;5.814;2023-04-24T05:53:10;6.03;;;2.75;;
59504;SDS011;45321;53.200;5.814;2023-04-24T05:55:36;6.00;;;2.90;;
59504;SDS011;45321;53.200;5.814;2023-04-24T05:58:02;5.93;;;3.13;;
59504;SDS011;45321;53.200;5.814;2023-04-24T06:00:27;6.15;;;2.65;;
59504;SDS011;45321;53.200;5.814;2023-04-24T06:02:53;4.90;;;2.80;;
59504;SDS011;45321;53.200;5.814;2023-04-24T06:05:20;5.50;;;2.55;;
59504;SDS011;45321;53.200;5.814;2023-04-24T06:07:46;8.15;;;2.50;;
59504;SDS011;45321;53.200;5.814;2023-04-24T06:10:12;4.68;;;2.47;;
59504;SDS011;45321;53.200;5.814;2023-04-24T06:12:38;5.22;;;2.10;;
59504;SDS011;45321;53.200;5.814;2023-04-24T06:15:03;4.07;;;2.33;;
59504;SDS011;45321;53.200;5.814;2023-04-24T06:17:30;5.45;;;2.30;;
59504;SDS011;45321;53.200;5.814;2023-04-24T06:19:56;4.30;;;2.45;;
59504;SDS011;45321;53.200;5.814;2023-04-24T06:22:21;3.65;;;1.50;;
59504;SDS011;45321;53.200;5.814;2023-04-24T06:24:47;5.00;;;1.83;;
59504;SDS011;45321;53.200;5.814;2023-04-24T06:27:13;5.22;;;2.15;;
59504;SDS011;45321;53.200;5.814;2023-04-24T06:29:39;5.75;;;2.20;;
59504;SDS011;45321;53.200;5.814;2023-04-24T06:32:05;10.07;;;4.75;;
59504;SDS011;45321;53.200;5.814;2023-04-24T06:34:31;10.88;;;5.47;;
59504;SDS011;45321;53.200;5.814;2023-04-24T06:36:58;12.73;;;7.70;;
59504;SDS011;45321;53.200;5.814;2023-04-24T06:39:25;15.45;;;7.85;;
59504;SDS011;45321;53.200;5.814;2023-04-24T06:41:51;15.82;;;9.48;;
59504;SDS011;45321;53.200;5.814;2023-04-24T06:44:16;15.45;;;10.80;;
59504;SDS011;45321;53.200;5.814;2023-04-24T06:46:42;16.00;;;12.32;;
59504;SDS011;45321;53.200;5.814;2023-04-24T06:49:08;13.40;;;10.45;;
59504;SDS011;45321;53.200;5.814;2023-04-24T06:51:34;17.80;;;11.80;;
59504;SDS011;45321;53.200;5.814;2023-04-24T06:54:00;21.27;;;12.10;;
59504;SDS011;45321;53.200;5.814;2023-04-24T06:56:26;21.25;;;12.32;;
59504;SDS011;45321;53.200;5.814;2023-04-24T06:58:54;15.30;;;10.95;;
59504;SDS011;45321;53.200;5.814;2023-04-24T07:01:19;16.45;;;10.20;;
59504;SDS011;45321;53.200;5.814;2023-04-24T07:03:45;12.88;;;8.98;;
59504;SDS011;45321;53.200;5.814;2023-04-24T07:06:11;21.33;;;11.70;;
59504;SDS011;45321;53.200;5.814;2023-04-24T07:08:37;18.58;;;11.25;;
59504;SDS011;45321;53.200;5.814;2023-04-24T07:11:04;18.73;;;12.55;;
59504;SDS011;45321;53.200;5.814;2023-04-24T07:13:30;24.67;;;13.38;;
59504;SDS011;45321;53.200;5.814;2023-04-24T07:15:56;21.90;;;13.57;;
59504;SDS011;45321;53.200;5.814;2023-04-24T07:18:22;24.02;;;14.07;;
59504;SDS011;45321;53.200;5.814;2023-04-24T07:20:48;24.00;;;14.63;;
59504;SDS011;45321;53.200;5.814;2023-04-24T07:23:15;21.90;;;14.55;;
59504;SDS011;45321;53.200;5.814;2023-04-24T07:25:41;20.20;;;13.68;;
59504;SDS011;45321;53.200;5.814;2023-04-24T07:28:07;23.90;;;15.02;;
59504;SDS011;45321;53.200;5.814;2023-04-24T07:30:33;20.60;;;14.57;;
59504;SDS011;45321;53.200;5.814;2023-04-24T07:32:59;18.83;;;13.70;;
59504;SDS011;45321;53.200;5.814;2023-04-24T07:35:25;20.08;;;12.65;;
59504;SDS011;45321;53.200;5.814;2023-04-24T07:37:54;18.60;;;12.63;;
59504;SDS011;45321;53.200;5.814;2023-04-24T07:40:21;14.40;;;10.13;;
59504;SDS011;45321;53.200;5.814;2023-04-24T07:42:47;13.98;;;9.25;;
59504;SDS011;45321;53.200;5.814;2023-04-24T07:45:16;13.60;;;8.25;;
59504;SDS011;45321;53.200;5.814;2023-04-24T07:47:41;9.93;;;7.65;;
59504;SDS011;45321;53.200;5.814;2023-04-24T07:50:11;13.13;;;7.97;;
59504;SDS011;45321;53.200;5.814;2023-04-24T07:52:38;17.45;;;6.65;;
59504;SDS011;45321;53.200;5.814;2023-04-24T07:55:04;11.70;;;7.22;;
59504;SDS011;45321;53.200;5.814;2023-04-24T07:57:30;12.20;;;6.85;;
59504;SDS011;45321;53.200;5.814;2023-04-24T07:59:56;14.13;;;6.97;;
59504;SDS011;45321;53.200;5.814;2023-04-24T08:02:21;11.90;;;6.93;;
59504;SDS011;45321;53.200;5.814;2023-04-24T08:04:51;13.40;;;6.38;;
59504;SDS011;45321;53.200;5.814;2023-04-24T08:07:19;9.27;;;5.80;;
59504;SDS011;45321;53.200;5.814;2023-04-24T08:09:45;11.68;;;6.80;;
59504;SDS011;45321;53.200;5.814;2023-04-24T08:12:10;13.35;;;6.50;;
59504;SDS011;45321;53.200;5.814;2023-04-24T08:14:36;8.52;;;6.43;;
59504;SDS011;45321;53.200;5.814;2023-04-24T08:17:02;13.85;;;6.78;;
59504;SDS011;45321;53.200;5.814;2023-04-24T08:19:28;12.95;;;6.32;;
59504;SDS011;45321;53.200;5.814;2023-04-24T08:21:54;13.75;;;6.53;;
59504;SDS011;45321;53.200;5.814;2023-04-24T08:24:20;13.90;;;6.80;;
59504;SDS011;45321;53.200;5.814;2023-04-24T08:26:47;14.75;;;6.28;;
59504;SDS011;45321;53.200;5.814;2023-04-24T08:29:15;17.63;;;6.82;;
59504;SDS011;45321;53.200;5.814;2023-04-24T08:31:41;14.40;;;6.10;;
59504;SDS011;45321;53.200;5.814;2023-04-24T08:34:07;16.85;;;6.55;;
59504;SDS011;45321;53.200;5.814;2023-04-24T08:36:32;12.63;;;5.20;;
59504;SDS011;45321;53.200;5.814;2023-04-24T08:38:58;15.35;;;4.47;;
59504;SDS011;45321;53.200;5.814;2023-04-24T08:41:24;12.05;;;4.93;;
59504;SDS011;45321;53.200;5.814;2023-04-24T08:43:51;13.15;;;4.20;;
59504;SDS011;45321;53.200;5.814;2023-04-24T08:46:18;14.23;;;4.38;;
59504;SDS011;45321;53.200;5.814;2023-04-24T08:48:44;11.43;;;4.38;;
59504;SDS011;45321;53.200;5.814;2023-04-24T08:51:10;9.45;;;4.18;;
59504;SDS011;45321;53.200;5.814;2023-04-24T08:53:36;8.05;;;3.95;;
59504;SDS011;45321;53.200;5.814;2023-04-24T08:56:03;8.25;;;3.33;;
59504;SDS011;45321;53.200;5.814;2023-04-24T08:58:29;10.18;;;3.60;;
59504;SDS011;45321;53.200;5.814;2023-04-24T09:00:58;8.07;;;2.75;;
59504;SDS011;45321;53.200;5.814;2023-04-24T09:03:24;10.43;;;3.25;;
59504;SDS011;45321;53.200;5.814;2023-04-24T09:05:53;10.10;;;3.40;;
59504;SDS011;45321;53.200;5.814;2023-04-24T09:08:23;11.48;;;3.63;;
59504;SDS011;45321;53.200;5.814;2023-04-24T09:10:50;10.10;;;3.47;;
59504;SDS011;45321;53.200;5.814;2023-04-24T09:13:15;10.73;;;3.40;;
59504;SDS011;45321;53.200;5.814;2023-04-24T09:15:41;13.77;;;4.03;;
59504;SDS011;45321;53.200;5.814;2023-04-24T09:18:07;8.48;;;2.67;;
59504;SDS011;45321;53.200;5.814;2023-04-24T09:20:33;11.98;;;3.42;;
59504;SDS011;45321;53.200;5.814;2023-04-24T09:23:01;14.05;;;2.63;;
59504;SDS011;45321;53.200;5.814;2023-04-24T09:25:33;12.15;;;3.20;;
59504;SDS011;45321;53.200;5.814;2023-04-24T09:28:03;8.90;;;3.17;;
59504;SDS011;45321;53.200;5.814;2023-04-24T09:30:31;11.68;;;2.55;;
59504;SDS011;45321;53.200;5.814;2023-04-24T09:33:13;14.88;;;2.45;;
59504;SDS011;45321;53.200;5.814;2023-04-24T09:35:50;7.45;;;2.70;;
59504;SDS011;45321;53.200;5.814;2023-04-24T09:38:17;12.10;;;3.60;;
59504;SDS011;45321;53.200;5.814;2023-04-24T09:40:43;7.28;;;2.42;;
59504;SDS011;45321;53.200;5.814;2023-04-24T09:43:10;10.13;;;3.42;;
59504;SDS011;45321;53.200;5.814;2023-04-24T09:45:39;10.75;;;2.83;;
59504;SDS011;45321;53.200;5.814;2023-04-24T09:48:05;8.85;;;2.60;;
59504;SDS011;45321;53.200;5.814;2023-04-24T09:50:35;10.07;;;2.65;;
59504;SDS011;45321;53.200;5.814;2023-04-24T09:53:01;11.52;;;2.65;;
59504;SDS011;45321;53.200;5.814;2023-04-24T09:55:29;9.23;;;2.45;;
59504;SDS011;45321;53.200;5.814;2023-04-24T09:57:59;15.25;;;2.97;;
59504;SDS011;45321;53.200;5.814;2023-04-24T10:00:27;11.70;;;2.58;;
59504;SDS011;45321;53.200;5.814;2023-04-24T10:03:01;11.32;;;2.60;;
59504;SDS011;45321;53.200;5.814;2023-04-24T10:05:29;8.57;;;1.90;;
59504;SDS011;45321;53.200;5.814;2023-04-24T10:08:00;12.52;;;2.63;;
59504;SDS011;45321;53.200;5.814;2023-04-24T10:10:31;9.00;;;2.10;;
59504;SDS011;45321;53.200;5.814;2023-04-24T10:13:01;7.03;;;1.75;;
59504;SDS011;45321;53.200;5.814;2023-04-24T10:15:27;7.65;;;1.90;;
59504;SDS011;45321;53.200;5.814;2023-04-24T10:17:53;7.45;;;1.92;;
59504;SDS011;45321;53.200;5.814;2023-04-24T10:20:23;11.48;;;2.55;;
59504;SDS011;45321;53.200;5.814;2023-04-24T10:22:52;7.72;;;2.05;;
59504;SDS011;45321;53.200;5.814;2023-04-24T10:25:19;9.60;;;2.45;;
59504;SDS011;45321;53.200;5.814;2023-04-24T10:27:47;9.15;;;2.50;;
59504;SDS011;45321;53.200;5.814;2023-04-24T10:30:14;13.90;;;2.90;;
59504;SDS011;45321;53.200;5.814;2023-04-24T10:32:40;9.93;;;1.85;;
59504;SDS011;45321;53.200;5.814;2023-04-24T10:35:06;11.77;;;2.25;;
59504;SDS011;45321;53.200;5.814;2023-04-24T10:37:37;14.98;;;2.33;;
59504;SDS011;45321;53.200;5.814;2023-04-24T10:40:05;14.65;;;2.85;;
59504;SDS011;45321;53.200;5.814;2023-04-24T10:42:32;11.70;;;2.60;;
59504;SDS011;45321;53.200;5.814;2023-04-24T10:44:59;9.15;;;2.08;;
59504;SDS011;45321;53.200;5.814;2023-04-24T10:47:27;11.73;;;2.55;;
59504;SDS011;45321;53.200;5.814;2023-04-24T10:49:53;8.75;;;2.05;;
59504;SDS011;45321;53.200;5.814;2023-04-24T10:52:18;9.38;;;2.35;;
59504;SDS011;45321;53.200;5.814;2023-04-24T10:54:46;9.77;;;2.03;;
59504;SDS011;45321;53.200;5.814;2023-04-24T10:59:48;8.90;;;1.60;;
59504;SDS011;45321;53.200;5.814;2023-04-24T11:02:37;8.88;;;1.50;;
59504;SDS011;45321;53.200;5.814;2023-04-24T11:05:05;4.72;;;1.40;;
59504;SDS011;45321;53.200;5.814;2023-04-24T11:10:45;11.10;;;1.70;;
59504;SDS011;45321;53.200;5.814;2023-04-24T11:13:15;7.28;;;2.15;;
59504;SDS011;45321;53.200;5.814;2023-04-24T11:15:42;6.55;;;1.80;;
59504;SDS011;45321;53.200;5.814;2023-04-24T11:18:12;9.55;;;1.95;;
59504;SDS011;45321;53.200;5.814;2023-04-24T11:20:43;5.63;;;1.23;;
59504;SDS011;45321;53.200;5.814;2023-04-24T11:23:11;6.13;;;1.80;;
59504;SDS011;45321;53.200;5.814;2023-04-24T11:25:37;4.43;;;1.23;;
59504;SDS011;45321;53.200;5.814;2023-04-24T11:28:04;5.40;;;1.08;;
59504;SDS011;45321;53.200;5.814;2023-04-24T11:30:31;5.90;;;1.05;;
59504;SDS011;45321;53.200;5.814;2023-04-24T11:33:04;5.18;;;1.13;;
59504;SDS011;45321;53.200;5.814;2023-04-24T11:35:34;7.07;;;1.65;;
59504;SDS011;45321;53.200;5.814;2023-04-24T11:38:04;6.03;;;1.17;;
59504;SDS011;45321;53.200;5.814;2023-04-24T11:40:31;9.20;;;1.38;;
59504;SDS011;45321;53.200;5.814;2023-04-24T11:42:56;7.43;;;1.20;;
59504;SDS011;45321;53.200;5.814;2023-04-24T11:45:26;6.07;;;1.90;;
59504;SDS011;45321;53.200;5.814;2023-04-24T11:47:53;5.10;;;1.40;;
59504;SDS011;45321;53.200;5.814;2023-04-24T11:50:20;7.03;;;1.40;;
59504;SDS011;45321;53.200;5.814;2023-04-24T11:52:48;11.27;;;1.75;;
59504;SDS011;45321;53.200;5.814;2023-04-24T11:57:50;5.22;;;1.10;;
59504;SDS011;45321;53.200;5.814;2023-04-24T12:00:20;8.32;;;1.20;;
59504;SDS011;45321;53.200;5.814;2023-04-24T12:02:48;6.30;;;0.73;;
59504;SDS011;45321;53.200;5.814;2023-04-24T12:05:21;6.70;;;1.33;;
59504;SDS011;45321;53.200;5.814;2023-04-24T12:07:51;5.03;;;0.95;;
59504;SDS011;45321;53.200;5.814;2023-04-24T12:10:21;4.80;;;1.15;;
59504;SDS011;45321;53.200;5.814;2023-04-24T12:12:52;6.93;;;1.00;;
59504;SDS011;45321;53.200;5.814;2023-04-24T12:15:20;6.53;;;0.98;;
59504;SDS011;45321;53.200;5.814;2023-04-24T12:17:47;3.28;;;0.90;;
59504;SDS011;45321;53.200;5.814;2023-04-24T12:20:15;9.20;;;1.30;;
59504;SDS011;45321;53.200;5.814;2023-04-24T12:25:16;3.83;;;0.90;;
59504;SDS011;45321;53.200;5.814;2023-04-24T12:27:43;6.40;;;0.63;;
59504;SDS011;45321;53.200;5.814;2023-04-24T12:30:14;4.03;;;0.93;;
59504;SDS011;45321;53.200;5.814;2023-04-24T12:32:44;5.82;;;1.00;;
59504;SDS011;45321;53.200;5.814;2023-04-24T12:35:11;6.35;;;0.90;;
59504;SDS011;45321;53.200;5.814;2023-04-24T12:37:37;4.35;;;1.13;;
59504;SDS011;45321;53.200;5.814;2023-04-24T12:40:11;8.18;;;1.40;;
59504;SDS011;45321;53.200;5.814;2023-04-24T12:42:50;7.38;;;1.45;;
59504;SDS011;45321;53.200;5.814;2023-04-24T12:45:17;4.53;;;1.27;;
59504;SDS011;45321;53.200;5.814;2023-04-24T12:47:44;4.45;;;1.30;;
59504;SDS011;45321;53.200;5.814;2023-04-24T12:50:11;3.05;;;1.00;;
59504;SDS011;45321;53.200;5.814;2023-04-24T12:52:40;5.45;;;1.10;;
59504;SDS011;45321;53.200;5.814;2023-04-24T12:55:06;5.15;;;1.42;;
59504;SDS011;45321;53.200;5.814;2023-04-24T12:57:33;4.40;;;0.90;;
59504;SDS011;45321;53.200;5.814;2023-04-24T13:00:00;5.00;;;1.20;;
59504;SDS011;45321;53.200;5.814;2023-04-24T13:02:29;5.93;;;1.15;;
59504;SDS011;45321;53.200;5.814;2023-04-24T13:04:56;10.20;;;2.00;;
59504;SDS011;45321;53.200;5.814;2023-04-24T13:07:23;6.65;;;1.27;;
59504;SDS011;45321;53.200;5.814;2023-04-24T13:09:49;10.45;;;2.20;;
59504;SDS011;45321;53.200;5.814;2023-04-24T13:12:16;13.27;;;2.50;;
59504;SDS011;45321;53.200;5.814;2023-04-24T13:14:42;9.68;;;2.70;;
59504;SDS011;45321;53.200;5.814;2023-04-24T13:17:07;10.10;;;2.38;;
59504;SDS011;45321;53.200;5.814;2023-04-24T13:19:37;9.35;;;2.30;;
59504;SDS011;45321;53.200;5.814;2023-04-24T13:22:04;10.30;;;2.25;;
59504;SDS011;45321;53.200;5.814;2023-04-24T13:24:31;14.95;;;2.47;;
59504;SDS011;45321;53.200;5.814;2023-04-24T13:26:57;13.15;;;2.35;;
59504;SDS011;45321;53.200;5.814;2023-04-24T13:29:23;12.57;;;3.08;;
59504;SDS011;45321;53.200;5.814;2023-04-24T13:31:50;13.68;;;2.45;;
59504;SDS011;45321;53.200;5.814;2023-04-24T13:34:16;10.82;;;2.63;;
59504;SDS011;45321;53.200;5.814;2023-04-24T13:36:42;8.75;;;2.35;;
59504;SDS011;45321;53.200;5.814;2023-04-24T13:39:08;7.45;;;1.83;;
59504;SDS011;45321;53.200;5.814;2023-04-24T13:41:35;12.13;;;2.92;;
59504;SDS011;45321;53.200;5.814;2023-04-24T13:44:02;6.35;;;1.92;;
59504;SDS011;45321;53.200;5.814;2023-04-24T13:46:28;9.95;;;2.20;;
59504;SDS011;45321;53.200;5.814;2023-04-24T13:48:54;8.00;;;1.95;;
59504;SDS011;45321;53.200;5.814;2023-04-24T13:51:20;7.95;;;2.65;;
59504;SDS011;45321;53.200;5.814;2023-04-24T13:53:46;8.88;;;2.30;;
59504;SDS011;45321;53.200;5.814;2023-04-24T13:56:11;10.57;;;2.38;;
59504;SDS011;45321;53.200;5.814;2023-04-24T13:58:38;7.90;;;2.10;;
59504;SDS011;45321;53.200;5.814;2023-04-24T14:01:04;17.70;;;4.32;;
59504;SDS011;45321;53.200;5.814;2023-04-24T14:03:30;10.93;;;2.72;;
59504;SDS011;45321;53.200;5.814;2023-04-24T14:05:56;16.55;;;3.03;;
59504;SDS011;45321;53.200;5.814;2023-04-24T14:08:22;11.27;;;2.58;;
59504;SDS011;45321;53.200;5.814;2023-04-24T14:10:48;7.47;;;2.20;;
59504;SDS011;45321;53.200;5.814;2023-04-24T14:13:13;14.73;;;3.30;;
59504;SDS011;45321;53.200;5.814;2023-04-24T14:15:39;9.95;;;3.05;;
59504;SDS011;45321;53.200;5.814;2023-04-24T14:18:05;14.65;;;3.50;;
59504;SDS011;45321;53.200;5.814;2023-04-24T14:20:31;9.93;;;3.05;;
59504;SDS011;45321;53.200;5.814;2023-04-24T14:22:57;16.75;;;3.22;;
59504;SDS011;45321;53.200;5.814;2023-04-24T14:25:26;13.90;;;3.05;;
59504;SDS011;45321;53.200;5.814;2023-04-24T14:27:51;14.65;;;3.42;;
59504;SDS011;45321;53.200;5.814;2023-04-24T14:30:17;14.13;;;3.05;;
59504;SDS011;45321;53.200;5.814;2023-04-24T14:32:43;15.35;;;2.95;;
59504;SDS011;45321;53.200;5.814;2023-04-24T14:35:09;15.85;;;3.33;;
59504;SDS011;45321;53.200;5.814;2023-04-24T14:37:35;15.60;;;3.65;;
59504;SDS011;45321;53.200;5.814;2023-04-24T14:40:02;18.20;;;3.58;;
59504;SDS011;45321;53.200;5.814;2023-04-24T14:42:30;11.75;;;2.90;;
59504;SDS011;45321;53.200;5.814;2023-04-24T14:44:56;15.50;;;4.05;;
59504;SDS011;45321;53.200;5.814;2023-04-24T14:47:21;9.20;;;2.53;;
59504;SDS011;45321;53.200;5.814;2023-04-24T14:49:48;15.52;;;2.97;;
59504;SDS011;45321;53.200;5.814;2023-04-24T14:52:15;11.25;;;3.35;;